sensor_id;sensor_type;location;lat;lon;timestamp;pressure;altitude;pressure_sealevel;temperature;humidity
22753;BME280;11543;43.144;24.684;2024-03-02T00:02:00;98428.94;;;9.97;82.78
22753;BME280;11543;43.144;24.684;2024-03-02T00:04:26;98413.31;;;9.84;82.63
22753;BME280;11543;43.144;24.684;2024-03-02T00:06:52;98413.59;;;9.73;82.84
22753;BME280;11543;43.144;24.684;2024-03-02T00:09:19;98415.75;;;9.69;82.92
22753;BME280;11543;43.144;24.684;2024-03-02T00:11:45;98441.94;;;9.83;83.13
22753;BME280;11543;43.144;24.684;2024-03-02T00:14:12;98430.72;;;9.80;82.94
22753;BME280;11543;43.144;24.684;2024-03-02T00:16:37;98416.59;;;9.70;83.22
22753;BME280;11543;43.144;24.684;2024-03-02T00:19:03;98421.78;;;9.71;83.24
22753;BME280;11543;43.144;24.684;2024-03-02T00:21:31;98428.16;;;9.70;83.82
22753;BME280;11543;43.144;24.684;2024-03-02T00:23:57;98415.25;;;9.66;83.77
22753;BME280;11543;43.144;24.684;2024-03-02T00:26:22;98394.09;;;9.54;84.53
22753;BME280;11543;43.144;24.684;2024-03-02T00:28:48;98405.88;;;9.70;84.85
22753;BME280;11543;43.144;24.684;2024-03-02T00:31:20;98432.63;;;9.96;84.58
22753;BME280;11543;43.144;24.684;2024-03-02T00:33:46;98432.50;;;10.05;84.45
22753;BME280;11543;43.144;24.684;2024-03-02T00:36:24;98422.63;;;10.14;84.26
22753;BME280;11543;43.144;24.684;2024-03-02T00:38:52;98370.81;;;9.97;84.04
22753;BME280;11543;43.144;24.684;2024-03-02T00:41:22;98395.03;;;10.21;84.33
22753;BME280;11543;43.144;24.684;2024-03-02T00:44:05;98398.03;;;10.18;84.14
22753;BME280;11543;43.144;24.684;2024-03-02T00:46:42;98397.19;;;10.18;83.87
22753;BME280;11543;43.144;24.684;2024-03-02T00:49:18;98387.47;;;10.17;83.54
22753;BME280;11543;43.144;24.684;2024-03-02T00:51:50;98370.50;;;10.00;83.88
22753;BME280;11543;43.144;24.684;2024-03-02T00:54:20;98395.34;;;10.18;84.13
22753;BME280;11543;43.144;24.684;2024-03-02T00:56:47;98396.72;;;10.23;83.84
22753;BME280;11543;43.144;24.684;2024-03-02T00:59:13;98384.31;;;10.21;84.09
22753;BME280;11543;43.144;24.684;2024-03-02T01:01:38;98385.31;;;10.20;83.81
22753;BME280;11543;43.144;24.684;2024-03-02T01:04:04;98368.25;;;10.21;83.72
22753;BME280;11543;43.144;24.684;2024-03-02T01:06:30;98402.66;;;10.42;83.29
22753;BME280;11543;43.144;24.684;2024-03-02T01:08:56;98364.56;;;10.23;83.47
22753;BME280;11543;43.144;24.684;2024-03-02T01:11:21;98389.41;;;10.41;83.30
22753;BME280;11543;43.144;24.684;2024-03-02T01:13:47;98396.47;;;10.42;83.55
22753;BME280;11543;43.144;24.684;2024-03-02T01:16:13;98381.00;;;10.36;83.28
22753;BME280;11543;43.144;24.684;2024-03-02T01:18:39;98346.13;;;10.28;82.84
22753;BME280;11543;43.144;24.684;2024-03-02T01:21:04;98367.94;;;10.33;82.96
22753;BME280;11543;43.144;24.684;2024-03-02T01:23:30;98374.16;;;10.41;83.20
22753;BME280;11543;43.144;24.684;2024-03-02T01:25:56;98377.34;;;10.45;82.89
22753;BME280;11543;43.144;24.684;2024-03-02T01:28:21;98373.84;;;10.44;82.63
22753;BME280;11543;43.144;24.684;2024-03-02T01:30:47;98383.06;;;10.50;83.09
22753;BME280;11543;43.144;24.684;2024-03-02T01:33:13;98364.28;;;10.42;82.80
22753;BME280;11543;43.144;24.684;2024-03-02T01:35:38;98372.16;;;10.51;82.88
22753;BME280;11543;43.144;24.684;2024-03-02T01:38:04;98369.66;;;10.42;82.68
22753;BME280;11543;43.144;24.684;2024-03-02T01:40:34;98370.78;;;10.39;82.92
22753;BME280;11543;43.144;24.684;2024-03-02T01:42:59;98377.13;;;10.30;82.93
22753;BME280;11543;43.144;24.684;2024-03-02T01:45:25;98368.94;;;10.32;82.94
22753;BME280;11543;43.144;24.684;2024-03-02T01:47:51;98346.63;;;10.23;83.39
22753;BME280;11543;43.144;24.684;2024-03-02T01:50:25;98377.31;;;10.37;83.24
22753;BME280;11543;43.144;24.684;2024-03-02T01:52:51;98373.28;;;10.33;83.02
22753;BME280;11543;43.144;24.684;2024-03-02T01:55:16;98364.56;;;10.31;83.22
22753;BME280;11543;43.144;24.684;2024-03-02T01:57:42;98360.22;;;10.30;83.67
22753;BME280;11543;43.144;24.684;2024-03-02T02:00:10;98378.00;;;10.39;83.37
22753;BME280;11543;43.144;24.684;2024-03-02T02:02:36;98376.97;;;10.40;83.43
22753;BME280;11543;43.144;24.684;2024-03-02T02:05:02;98367.97;;;10.41;83.20
22753;BME280;11543;43.144;24.684;2024-03-02T02:07:27;98380.88;;;10.45;83.10
22753;BME280;11543;43.144;24.684;2024-03-02T02:09:53;98387.72;;;10.40;83.56
22753;BME280;11543;43.144;24.684;2024-03-02T02:12:18;98360.22;;;10.30;83.31
22753;BME280;11543;43.144;24.684;2024-03-02T02:14:48;98382.69;;;10.37;83.69
22753;BME280;11543;43.144;24.684;2024-03-02T02:17:14;98360.53;;;10.27;83.69
22753;BME280;11543;43.144;24.684;2024-03-02T02:19:41;98365.25;;;10.33;83.58
22753;BME280;11543;43.144;24.684;2024-03-02T02:22:06;98364.56;;;10.39;83.50
22753;BME280;11543;43.144;24.684;2024-03-02T02:24:31;98360.59;;;10.43;83.50
22753;BME280;11543;43.144;24.684;2024-03-02T02:26:57;98369.31;;;10.53;83.42
22753;BME280;11543;43.144;24.684;2024-03-02T02:29:22;98366.31;;;10.56;83.00
22753;BME280;11543;43.144;24.684;2024-03-02T02:31:48;98352.72;;;10.49;82.82
22753;BME280;11543;43.144;24.684;2024-03-02T02:34:14;98356.06;;;10.43;83.31
22753;BME280;11543;43.144;24.684;2024-03-02T02:36:40;98359.25;;;10.47;83.33
22753;BME280;11543;43.144;24.684;2024-03-02T02:39:07;98347.34;;;10.41;83.33
22753;BME280;11543;43.144;24.684;2024-03-02T02:41:33;98361.94;;;10.47;83.46
22753;BME280;11543;43.144;24.684;2024-03-02T02:43:59;98366.13;;;10.49;83.36
22753;BME280;11543;43.144;24.684;2024-03-02T02:46:24;98366.97;;;10.50;83.33
22753;BME280;11543;43.144;24.684;2024-03-02T02:48:50;98388.59;;;10.48;83.49
22753;BME280;11543;43.144;24.684;2024-03-02T02:51:18;98380.72;;;10.47;83.47
22753;BME280;11543;43.144;24.684;2024-03-02T02:53:43;98366.47;;;10.46;83.31
22753;BME280;11543;43.144;24.684;2024-03-02T02:56:09;98350.81;;;10.26;83.48
22753;BME280;11543;43.144;24.684;2024-03-02T02:58:35;98356.84;;;10.28;83.36
22753;BME280;11543;43.144;24.684;2024-03-02T03:01:01;98371.31;;;10.43;83.50
22753;BME280;11543;43.144;24.684;2024-03-02T03:03:26;98361.88;;;10.31;83.40
22753;BME280;11543;43.144;24.684;2024-03-02T03:05:52;98371.78;;;10.30;83.39
22753;BME280;11543;43.144;24.684;2024-03-02T03:08:17;98355.84;;;10.20;83.51
22753;BME280;11543;43.144;24.684;2024-03-02T03:10:43;98369.91;;;10.23;83.56
22753;BME280;11543;43.144;24.684;2024-03-02T03:13:08;98364.56;;;10.23;83.69
22753;BME280;11543;43.144;24.684;2024-03-02T03:15:35;98357.81;;;10.18;83.66
22753;BME280;11543;43.144;24.684;2024-03-02T03:18:04;98362.88;;;10.21;84.05
22753;BME280;11543;43.144;24.684;2024-03-02T03:20:30;98381.47;;;10.23;83.94
22753;BME280;11543;43.144;24.684;2024-03-02T03:22:59;98362.53;;;10.25;84.40
22753;BME280;11543;43.144;24.684;2024-03-02T03:25:25;98349.44;;;10.13;84.22
22753;BME280;11543;43.144;24.684;2024-03-02T03:27:51;98350.78;;;10.17;84.79
22753;BME280;11543;43.144;24.684;2024-03-02T03:30:19;98368.25;;;10.30;85.10
22753;BME280;11543;43.144;24.684;2024-03-02T03:32:45;98367.91;;;10.25;84.94
22753;BME280;11543;43.144;24.684;2024-03-02T03:35:10;98350.47;;;10.20;85.31
22753;BME280;11543;43.144;24.684;2024-03-02T03:37:37;98361.06;;;10.30;85.18
22753;BME280;11543;43.144;24.684;2024-03-02T03:40:03;98366.75;;;10.27;85.36
22753;BME280;11543;43.144;24.684;2024-03-02T03:42:37;98351.09;;;10.14;85.15
22753;BME280;11543;43.144;24.684;2024-03-02T03:45:04;98359.19;;;10.23;85.38
22753;BME280;11543;43.144;24.684;2024-03-02T03:47:31;98366.56;;;10.29;85.02
22753;BME280;11543;43.144;24.684;2024-03-02T03:49:57;98388.72;;;10.39;85.29
22753;BME280;11543;43.144;24.684;2024-03-02T03:52:23;98378.81;;;10.39;85.15
22753;BME280;11543;43.144;24.684;2024-03-02T03:54:48;98389.09;;;10.44;84.87
22753;BME280;11543;43.144;24.684;2024-03-02T03:57:14;98378.38;;;10.44;84.94
22753;BME280;11543;43.144;24.684;2024-03-02T03:59:39;98377.69;;;10.50;84.39
22753;BME280;11543;43.144;24.684;2024-03-02T04:02:05;98383.41;;;10.55;84.38
22753;BME280;11543;43.144;24.684;2024-03-02T04:04:31;98361.22;;;10.37;84.05
22753;BME280;11543;43.144;24.684;2024-03-02T04:06:56;98361.91;;;10.39;84.34
22753;BME280;11543;43.144;24.684;2024-03-02T04:09:22;98380.53;;;10.48;83.97
22753;BME280;11543;43.144;24.684;2024-03-02T04:11:47;98390.09;;;10.51;83.92
22753;BME280;11543;43.144;24.684;2024-03-02T04:14:13;98361.22;;;10.37;83.85
22753;BME280;11543;43.144;24.684;2024-03-02T04:16:38;98376.84;;;10.49;84.17
22753;BME280;11543;43.144;24.684;2024-03-02T04:19:04;98370.78;;;10.39;84.00
22753;BME280;11543;43.144;24.684;2024-03-02T04:21:30;98373.34;;;10.41;83.69
22753;BME280;11543;43.144;24.684;2024-03-02T04:23:55;98382.69;;;10.37;84.19
22753;BME280;11543;43.144;24.684;2024-03-02T04:26:27;98393.06;;;10.40;84.44
22753;BME280;11543;43.144;24.684;2024-03-02T04:28:53;98388.41;;;10.42;84.38
22753;BME280;11543;43.144;24.684;2024-03-02T04:31:19;98402.00;;;10.48;84.48
22753;BME280;11543;43.144;24.684;2024-03-02T04:33:45;98382.03;;;10.43;84.46
22753;BME280;11543;43.144;24.684;2024-03-02T04:36:11;98368.94;;;10.40;84.34
22753;BME280;11543;43.144;24.684;2024-03-02T04:38:37;98394.44;;;10.44;84.27
22753;BME280;11543;43.144;24.684;2024-03-02T04:41:04;98389.09;;;10.44;84.36
22753;BME280;11543;43.144;24.684;2024-03-02T04:43:31;98389.41;;;10.41;84.37
22753;BME280;11543;43.144;24.684;2024-03-02T04:45:58;98390.75;;;10.45;84.41
22753;BME280;11543;43.144;24.684;2024-03-02T04:48:23;98360.22;;;10.30;84.64
22753;BME280;11543;43.144;24.684;2024-03-02T04:50:49;98403.34;;;10.52;84.41
22753;BME280;11543;43.144;24.684;2024-03-02T04:53:14;98399.16;;;10.50;84.44
22753;BME280;11543;43.144;24.684;2024-03-02T04:55:40;98384.06;;;10.41;84.17
22753;BME280;11543;43.144;24.684;2024-03-02T04:58:05;98382.34;;;10.40;84.36
22753;BME280;11543;43.144;24.684;2024-03-02T05:00:32;98368.94;;;10.32;84.22
22753;BME280;11543;43.144;24.684;2024-03-02T05:02:57;98396.13;;;10.45;84.36
22753;BME280;11543;43.144;24.684;2024-03-02T05:05:23;98388.03;;;10.37;84.41
22753;BME280;11543;43.144;24.684;2024-03-02T05:07:48;98397.16;;;10.52;84.52
22753;BME280;11543;43.144;24.684;2024-03-02T05:10:14;98392.13;;;10.49;84.25
22753;BME280;11543;43.144;24.684;2024-03-02T05:12:39;98393.78;;;10.50;84.24
22753;BME280;11543;43.144;24.684;2024-03-02T05:15:09;98407.03;;;10.51;84.33
22753;BME280;11543;43.144;24.684;2024-03-02T05:17:39;98408.72;;;10.52;83.97
22753;BME280;11543;43.144;24.684;2024-03-02T05:20:07;98388.03;;;10.37;84.02
22753;BME280;11543;43.144;24.684;2024-03-02T05:22:33;98399.00;;;10.51;84.06
22753;BME280;11543;43.144;24.684;2024-03-02T05:25:00;98422.66;;;10.64;83.91
22753;BME280;11543;43.144;24.684;2024-03-02T05:27:26;98425.00;;;10.67;84.10
22753;BME280;11543;43.144;24.684;2024-03-02T05:29:52;98422.97;;;10.61;83.85
22753;BME280;11543;43.144;24.684;2024-03-02T05:32:17;98377.97;;;10.31;84.01
22753;BME280;11543;43.144;24.684;2024-03-02T05:34:43;98410.22;;;10.47;83.72
22753;BME280;11543;43.144;24.684;2024-03-02T05:37:08;98421.28;;;10.44;83.94
22753;BME280;11543;43.144;24.684;2024-03-02T05:39:34;98433.34;;;10.48;84.24
22753;BME280;11543;43.144;24.684;2024-03-02T05:41:59;98428.81;;;10.48;84.14
22753;BME280;11543;43.144;24.684;2024-03-02T05:44:25;98423.56;;;10.39;84.26
22753;BME280;11543;43.144;24.684;2024-03-02T05:46:50;98421.91;;;10.38;84.41
22753;BME280;11543;43.144;24.684;2024-03-02T05:49:16;98432.00;;;10.44;84.37
22753;BME280;11543;43.144;24.684;2024-03-02T05:51:41;98427.59;;;10.35;84.47
22753;BME280;11543;43.144;24.684;2024-03-02T05:54:07;98452.78;;;10.42;84.84
22753;BME280;11543;43.144;24.684;2024-03-02T05:56:32;98445.72;;;10.41;85.06
22753;BME280;11543;43.144;24.684;2024-03-02T05:58:58;98452.06;;;10.40;85.13
22753;BME280;11543;43.144;24.684;2024-03-02T06:01:44;98450.72;;;10.36;85.36
22753;BME280;11543;43.144;24.684;2024-03-02T06:04:10;98434.44;;;10.29;85.25
22753;BME280;11543;43.144;24.684;2024-03-02T06:06:36;98428.56;;;10.26;85.16
22753;BME280;11543;43.144;24.684;2024-03-02T06:09:02;98450.34;;;10.23;85.41
22753;BME280;11543;43.144;24.684;2024-03-02T06:11:39;98433.19;;;10.15;85.35
22753;BME280;11543;43.144;24.684;2024-03-02T06:14:06;98424.75;;;9.94;86.86
22753;BME280;11543;43.144;24.684;2024-03-02T06:16:32;98462.66;;;10.07;87.03
22753;BME280;11543;43.144;24.684;2024-03-02T06:18:58;98422.94;;;10.03;87.22
22753;BME280;11543;43.144;24.684;2024-03-02T06:21:24;98422.97;;;9.69;88.95
22753;BME280;11543;43.144;24.684;2024-03-02T06:23:50;98446.50;;;9.91;88.75
22753;BME280;11543;43.144;24.684;2024-03-02T06:26:15;98421.00;;;9.79;88.31
22753;BME280;11543;43.144;24.684;2024-03-02T06:28:41;98422.69;;;9.80;88.66
22753;BME280;11543;43.144;24.684;2024-03-02T06:31:06;98452.78;;;10.08;88.38
22753;BME280;11543;43.144;24.684;2024-03-02T06:33:32;98443.41;;;10.12;88.30
22753;BME280;11543;43.144;24.684;2024-03-02T06:35:58;98458.41;;;10.31;88.49
22753;BME280;11543;43.144;24.684;2024-03-02T06:38:23;98440.31;;;10.33;88.27
22753;BME280;11543;43.144;24.684;2024-03-02T06:40:49;98448.53;;;10.39;88.23
22753;BME280;11543;43.144;24.684;2024-03-02T06:43:15;98452.13;;;10.48;87.87
22753;BME280;11543;43.144;24.684;2024-03-02T06:45:40;98451.28;;;10.47;87.89
22753;BME280;11543;43.144;24.684;2024-03-02T06:48:06;98421.84;;;10.21;87.77
22753;BME280;11543;43.144;24.684;2024-03-02T06:50:33;98450.06;;;10.00;88.70
22753;BME280;11543;43.144;24.684;2024-03-02T06:52:59;98439.84;;;10.03;89.52
22753;BME280;11543;43.144;24.684;2024-03-02T06:55:25;98439.06;;;10.19;89.09
22753;BME280;11543;43.144;24.684;2024-03-02T06:57:52;98445.66;;;10.25;88.93
22753;BME280;11543;43.144;24.684;2024-03-02T07:00:18;98454.06;;;10.38;88.50
22753;BME280;11543;43.144;24.684;2024-03-02T07:02:46;98447.72;;;10.39;88.52
22753;BME280;11543;43.144;24.684;2024-03-02T07:05:12;98443.34;;;10.38;88.56
22753;BME280;11543;43.144;24.684;2024-03-02T07:07:37;98445.34;;;10.36;88.66
22753;BME280;11543;43.144;24.684;2024-03-02T07:10:06;98452.06;;;10.40;88.90
22753;BME280;11543;43.144;24.684;2024-03-02T07:12:35;98472.56;;;10.49;88.50
22753;BME280;11543;43.144;24.684;2024-03-02T07:15:02;98448.72;;;10.38;88.92
22753;BME280;11543;43.144;24.684;2024-03-02T07:17:27;98492.69;;;10.45;88.97
22753;BME280;11543;43.144;24.684;2024-03-02T07:19:53;98474.16;;;10.34;89.06
22753;BME280;11543;43.144;24.684;2024-03-02T07:22:20;98472.38;;;10.42;88.75
22753;BME280;11543;43.144;24.684;2024-03-02T07:24:45;98481.94;;;10.45;89.14
22753;BME280;11543;43.144;24.684;2024-03-02T07:27:12;98476.59;;;10.45;89.23
22753;BME280;11543;43.144;24.684;2024-03-02T07:29:38;98500.59;;;10.63;89.14
22753;BME280;11543;43.144;24.684;2024-03-02T07:32:05;98496.41;;;10.60;89.10
22753;BME280;11543;43.144;24.684;2024-03-02T07:34:30;98487.53;;;10.60;89.05
22753;BME280;11543;43.144;24.684;2024-03-02T07:36:58;98478.78;;;10.58;89.02
22753;BME280;11543;43.144;24.684;2024-03-02T07:39:24;98500.78;;;10.69;88.97
22753;BME280;11543;43.144;24.684;2024-03-02T07:41:49;98474.94;;;10.60;88.78
22753;BME280;11543;43.144;24.684;2024-03-02T07:44:15;98499.63;;;10.72;88.84
22753;BME280;11543;43.144;24.684;2024-03-02T07:46:42;98485.03;;;10.66;88.90
22753;BME280;11543;43.144;24.684;2024-03-02T07:49:10;98491.41;;;10.73;89.08
22753;BME280;11543;43.144;24.684;2024-03-02T07:51:36;98462.34;;;10.52;88.76
22753;BME280;11543;43.144;24.684;2024-03-02T07:54:01;98492.25;;;10.74;88.56
22753;BME280;11543;43.144;24.684;2024-03-02T07:56:28;98479.66;;;10.66;88.60
22753;BME280;11543;43.144;24.684;2024-03-02T07:58:54;98489.72;;;10.72;88.61
22753;BME280;11543;43.144;24.684;2024-03-02T08:01:22;98487.72;;;10.74;88.38
22753;BME280;11543;43.144;24.684;2024-03-02T08:03:48;98463.56;;;10.66;88.58
22753;BME280;11543;43.144;24.684;2024-03-02T08:06:18;98475.66;;;10.78;88.26
22753;BME280;11543;43.144;24.684;2024-03-02T08:08:45;98478.81;;;10.66;88.62
22753;BME280;11543;43.144;24.684;2024-03-02T08:11:11;98467.25;;;10.65;88.30
22753;BME280;11543;43.144;24.684;2024-03-02T08:13:37;98477.00;;;10.82;88.23
22753;BME280;11543;43.144;24.684;2024-03-02T08:16:03;98487.56;;;10.84;88.32
22753;BME280;11543;43.144;24.684;2024-03-02T08:18:32;98479.53;;;10.92;87.91
22753;BME280;11543;43.144;24.684;2024-03-02T08:20:57;98500.16;;;11.08;87.77
22753;BME280;11543;43.144;24.684;2024-03-02T08:23:27;98483.72;;;11.03;87.69
22753;BME280;11543;43.144;24.684;2024-03-02T08:25:52;98471.97;;;11.04;87.83
22753;BME280;11543;43.144;24.684;2024-03-02T08:28:19;98482.06;;;11.10;88.10
22753;BME280;11543;43.144;24.684;2024-03-02T08:30:45;98468.47;;;11.11;87.38
22753;BME280;11543;43.144;24.684;2024-03-02T08:33:11;98471.81;;;11.13;87.38
22753;BME280;11543;43.144;24.684;2024-03-02T08:35:36;98454.19;;;11.19;87.33
22753;BME280;11543;43.144;24.684;2024-03-02T08:38:03;98466.94;;;11.17;87.45
22753;BME280;11543;43.144;24.684;2024-03-02T08:40:29;98448.66;;;11.12;87.68
22753;BME280;11543;43.144;24.684;2024-03-02T08:42:55;98440.44;;;11.06;88.04
22753;BME280;11543;43.144;24.684;2024-03-02T08:45:21;98471.31;;;11.26;88.07
22753;BME280;11543;43.144;24.684;2024-03-02T08:47:46;98474.03;;;11.34;88.12
22753;BME280;11543;43.144;24.684;2024-03-02T08:50:12;98465.63;;;11.29;88.26
22753;BME280;11543;43.144;24.684;2024-03-02T08:52:38;98465.28;;;11.16;88.49
22753;BME280;11543;43.144;24.684;2024-03-02T08:55:04;98438.94;;;10.87;89.14
22753;BME280;11543;43.144;24.684;2024-03-02T08:57:30;98478.66;;;10.75;90.27
22753;BME280;11543;43.144;24.684;2024-03-02T08:59:56;98449.47;;;10.64;90.64
22753;BME280;11543;43.144;24.684;2024-03-02T09:02:21;98453.13;;;10.47;91.28
22753;BME280;11543;43.144;24.684;2024-03-02T09:04:47;98442.72;;;10.44;91.87
22753;BME280;11543;43.144;24.684;2024-03-02T09:07:12;98431.66;;;10.47;91.84
22753;BME280;11543;43.144;24.684;2024-03-02T09:09:38;98445.25;;;10.45;92.85
22753;BME280;11543;43.144;24.684;2024-03-02T09:12:05;98441.66;;;10.37;93.33
22753;BME280;11543;43.144;24.684;2024-03-02T09:14:31;98452.41;;;10.37;93.78
22753;BME280;11543;43.144;24.684;2024-03-02T09:16:56;98459.28;;;10.39;94.29
22753;BME280;11543;43.144;24.684;2024-03-02T09:19:22;98470.41;;;10.61;93.86
22753;BME280;11543;43.144;24.684;2024-03-02T09:21:47;98466.22;;;10.58;93.82
22753;BME280;11543;43.144;24.684;2024-03-02T09:24:13;98448.44;;;10.49;94.02
22753;BME280;11543;43.144;24.684;2024-03-02T09:26:38;98459.88;;;10.83;93.34
22753;BME280;11543;43.144;24.684;2024-03-02T09:29:03;98470.31;;;11.03;92.36
22753;BME280;11543;43.144;24.684;2024-03-02T09:31:29;98480.88;;;11.12;91.35
22753;BME280;11543;43.144;24.684;2024-03-02T09:33:55;98463.59;;;11.15;90.93
22753;BME280;11543;43.144;24.684;2024-03-02T09:36:21;98473.66;;;11.05;90.48
22753;BME280;11543;43.144;24.684;2024-03-02T09:38:47;98476.34;;;11.13;90.23
22753;BME280;11543;43.144;24.684;2024-03-02T09:41:14;98474.69;;;11.28;88.81
22753;BME280;11543;43.144;24.684;2024-03-02T09:43:40;98477.38;;;11.36;88.21
22753;BME280;11543;43.144;24.684;2024-03-02T09:46:07;98452.53;;;11.18;87.63
22753;BME280;11543;43.144;24.684;2024-03-02T09:48:34;98468.97;;;11.15;87.85
22753;BME280;11543;43.144;24.684;2024-03-02T09:51:00;98463.94;;;10.96;88.48
22753;BME280;11543;43.144;24.684;2024-03-02T09:53:31;98480.53;;;10.83;89.54
22753;BME280;11543;43.144;24.684;2024-03-02T09:55:57;98466.25;;;10.66;89.93
22753;BME280;11543;43.144;24.684;2024-03-02T09:58:22;98457.84;;;10.69;90.43
22753;BME280;11543;43.144;24.684;2024-03-02T10:00:48;98471.28;;;10.77;90.54
22753;BME280;11543;43.144;24.684;2024-03-02T10:03:14;98474.16;;;10.92;90.35
22753;BME280;11543;43.144;24.684;2024-03-02T10:05:40;98458.22;;;10.99;89.91
22753;BME280;11543;43.144;24.684;2024-03-02T10:08:05;98454.53;;;10.83;89.61
22753;BME280;11543;43.144;24.684;2024-03-02T10:10:40;98468.97;;;10.99;89.75
22753;BME280;11543;43.144;24.684;2024-03-02T10:13:07;98477.66;;;10.84;89.21
22753;BME280;11543;43.144;24.684;2024-03-02T10:15:35;98486.06;;;10.81;89.55
22753;BME280;11543;43.144;24.684;2024-03-02T10:18:03;98469.44;;;10.86;89.45
22753;BME280;11543;43.144;24.684;2024-03-02T10:20:28;98474.00;;;11.02;88.32
22753;BME280;11543;43.144;24.684;2024-03-02T10:22:55;98449.84;;;11.02;87.20
22753;BME280;11543;43.144;24.684;2024-03-02T10:25:30;98483.75;;;11.27;87.02
22753;BME280;11543;43.144;24.684;2024-03-02T10:28:00;98453.84;;;11.14;86.22
22753;BME280;11543;43.144;24.684;2024-03-02T10:30:29;98478.38;;;11.35;86.12
22753;BME280;11543;43.144;24.684;2024-03-02T10:32:55;98492.81;;;11.42;85.43
22753;BME280;11543;43.144;24.684;2024-03-02T10:35:21;98487.44;;;11.42;85.17
22753;BME280;11543;43.144;24.684;2024-03-02T10:37:49;98464.25;;;11.25;84.60
22753;BME280;11543;43.144;24.684;2024-03-02T10:40:15;98473.03;;;11.27;84.75
22753;BME280;11543;43.144;24.684;2024-03-02T10:42:41;98486.59;;;11.42;84.68
22753;BME280;11543;43.144;24.684;2024-03-02T10:45:09;98478.03;;;11.46;84.39
22753;BME280;11543;43.144;24.684;2024-03-02T10:47:38;98470.81;;;11.55;84.00
22753;BME280;11543;43.144;24.684;2024-03-02T10:50:07;98467.63;;;11.43;84.83
22753;BME280;11543;43.144;24.684;2024-03-02T10:52:39;98462.78;;;11.31;84.79
22753;BME280;11543;43.144;24.684;2024-03-02T10:55:09;98464.94;;;11.35;84.83
22753;BME280;11543;43.144;24.684;2024-03-02T10:57:54;98461.59;;;11.01;86.23
22753;BME280;11543;43.144;24.684;2024-03-02T11:00:24;98449.81;;;10.77;87.83
22753;BME280;11543;43.144;24.684;2024-03-02T11:02:54;98466.75;;;10.78;88.66
22753;BME280;11543;43.144;24.684;2024-03-02T11:05:27;98467.28;;;10.81;88.81
22753;BME280;11543;43.144;24.684;2024-03-02T11:08:06;98467.41;;;10.64;89.25
22753;BME280;11543;43.144;24.684;2024-03-02T11:10:41;98463.56;;;10.66;89.11
22753;BME280;11543;43.144;24.684;2024-03-02T11:13:12;98455.50;;;10.58;89.08
22753;BME280;11543;43.144;24.684;2024-03-02T11:15:39;98454.16;;;10.62;89.00
22753;BME280;11543;43.144;24.684;2024-03-02T11:18:06;98469.59;;;10.76;89.02
22753;BME280;11543;43.144;24.684;2024-03-02T11:20:38;98456.88;;;10.78;88.66
22753;BME280;11543;43.144;24.684;2024-03-02T11:23:05;98455.53;;;10.91;88.08
22753;BME280;11543;43.144;24.684;2024-03-02T11:25:32;98457.22;;;10.83;86.98
22753;BME280;11543;43.144;24.684;2024-03-02T11:28:02;98466.94;;;11.01;85.97
22753;BME280;11543;43.144;24.684;2024-03-02T11:33:07;98460.22;;;10.97;86.15
22753;BME280;11543;43.144;24.684;2024-03-02T11:35:35;98471.31;;;11.02;86.71
22753;BME280;11543;43.144;24.684;2024-03-02T11:38:01;98463.91;;;10.88;87.51
22753;BME280;11543;43.144;24.684;2024-03-02T11:40:29;98437.06;;;10.63;87.72
22753;BME280;11543;43.144;24.684;2024-03-02T11:42:55;98456.00;;;10.62;88.15
22753;BME280;11543;43.144;24.684;2024-03-02T11:45:26;98439.75;;;10.71;88.33
22753;BME280;11543;43.144;24.684;2024-03-02T11:47:54;98438.75;;;10.64;88.49
22753;BME280;11543;43.144;24.684;2024-03-02T11:50:29;98451.31;;;10.72;88.90
22753;BME280;11543;43.144;24.684;2024-03-02T11:52:56;98461.56;;;10.84;88.34
22753;BME280;11543;43.144;24.684;2024-03-02T11:55:25;98490.59;;;11.13;87.57
22753;BME280;11543;43.144;24.684;2024-03-02T11:57:52;98469.97;;;11.14;86.91
22753;BME280;11543;43.144;24.684;2024-03-02T12:00:20;98450.16;;;11.15;86.48
22753;BME280;11543;43.144;24.684;2024-03-02T12:02:46;98457.56;;;11.21;85.72
22753;BME280;11543;43.144;24.684;2024-03-02T12:05:16;98482.41;;;11.39;85.99
22753;BME280;11543;43.144;24.684;2024-03-02T12:07:42;98472.66;;;11.22;85.55
22753;BME280;11543;43.144;24.684;2024-03-02T12:10:08;98504.41;;;11.43;85.42
22753;BME280;11543;43.144;24.684;2024-03-02T12:12:34;98485.25;;;11.38;85.09
22753;BME280;11543;43.144;24.684;2024-03-02T12:15:00;98495.84;;;11.39;84.54
22753;BME280;11543;43.144;24.684;2024-03-02T12:17:26;98506.56;;;11.47;83.69
22753;BME280;11543;43.144;24.684;2024-03-02T12:19:52;98477.19;;;11.22;83.72
22753;BME280;11543;43.144;24.684;2024-03-02T12:22:18;98470.31;;;11.35;83.47
22753;BME280;11543;43.144;24.684;2024-03-02T12:24:44;98454.88;;;11.45;82.55
22753;BME280;11543;43.144;24.684;2024-03-02T12:27:12;98473.31;;;11.57;82.61
22753;BME280;11543;43.144;24.684;2024-03-02T12:29:38;98474.03;;;11.34;83.04
22753;BME280;11543;43.144;24.684;2024-03-02T12:32:05;98469.66;;;11.41;83.39
22753;BME280;11543;43.144;24.684;2024-03-02T12:34:36;98477.72;;;11.33;83.57
22753;BME280;11543;43.144;24.684;2024-03-02T12:37:06;98462.91;;;11.21;83.81
22753;BME280;11543;43.144;24.684;2024-03-02T12:39:31;98488.78;;;11.38;83.71
22753;BME280;11543;43.144;24.684;2024-03-02T12:41:58;98500.19;;;11.40;83.77
22753;BME280;11543;43.144;24.684;2024-03-02T12:44:23;98472.00;;;11.28;83.90
22753;BME280;11543;43.144;24.684;2024-03-02T12:46:49;98476.69;;;11.26;83.86
22753;BME280;11543;43.144;24.684;2024-03-02T12:49:16;98473.31;;;11.24;83.98
22753;BME280;11543;43.144;24.684;2024-03-02T12:51:42;98489.78;;;11.37;83.54